Accueil
METAR-TAF:

METAR-TAF

Aéroports :

Aéroport d'Elâzığ

Elazığ, Turquie

latitude: 38-36N, longitude: 039-17E, altitude: 902 m

Observation

Le bulletin a été fait il y a 51 minutes, à 15:50 UTC
Vent calme
Température -1°C
Humidité 86%
Pression 1024 hPa
Visibilité 10 km ou plus
Quelques nuages à une hauteur de 3500 ft
Nuages épars à une hauteur de 12000 ft

METAR: LTCA 191550Z 00000KT 9999 FEW035 SCT120 M01/M03 Q1024 NOSIG

Heure: 19:41 (16:41 UTC)

Prévision

Le bulletin a été fait il y a 3 heures et 1 minutes, à 13:40 UTC
Prévision valable du 19 à 15 UTC au 19 à 24 UTC
Vent 2 kt de direction variable
Visibilité 10 km ou plus
Quelques nuages à une hauteur de 3000 ft
Evoluant progressivement
du 19 à 15 UTC au 19 à 17 UTC
Visibilité 10 km ou plus
pas de nuages en-dessous de 1500 mètres et pas de cumulonimbus.

TAF: LTCA 191340Z 1915/1924 VRB02KT 9999 FEW030 BECMG 1915/1917 CAVOK

Observations et prévisions météorologiques de plus de 4000 aéroports (messages METAR et TAF).

Les stations disponibles sont représentées par des disques jaunes et rouges sur la carte.

Passer la souris dessus pour voir le nom de la station.

Cliquer dessus pour voir les observations et prévisions météorologiques.

Pour changer de carte: cliquez sur les boutons verts avec une croix noire pour zoomer, sur le bouton vert avec un tiret pour effectuer un zoom arrière, ou sur les flèches vertes pour les cartes adjacentes.


METAR-TAF: